Time;durP1;ratioP1;P1;durP2;ratioP2;P2;SDS_P1;SDS_P2;PMS_P1;PMS_P2;Temp;Humidity;BMP_temperature;BMP_pressure;BME280_temperature;BME280_humidity;BME280_pressure;Samples;Min_cycle;Max_cycle;Signal;HPM_P1;HPM_P2
2021/09/06 00:00:43;;;;;;;;;;;;;;;;;;10413186;28;20288;-64
2021/09/06 00:05:40;;;;;;;;;;;;;;;;;;10418631;28;19964;-64
2021/09/06 00:10:39;;;;;;;;;;;;;;;;;;10372558;28;19924;-64
2021/09/06 00:15:36;;;;;;;;;;;;;;;;;;10388913;28;19916;-65
2021/09/06 00:20:33;;;;;;;;;;;;;;;;;;10401877;28;20410;-65
2021/09/06 00:25:31;;;;;;;;;;;;;;;;;;10430856;28;20046;-63
2021/09/06 00:30:28;;;;;;;;;;;;;;;;;;10403979;28;20119;-64
2021/09/06 00:35:25;;;;;;;;;;;;;;;;;;10403551;28;20482;-62
2021/09/06 00:40:22;;;;;;;;;;;;;;;;;;10388297;28;19926;-63
2021/09/06 00:45:20;;;;;;;;;;;;;;;;;;10398622;28;20395;-64
2021/09/06 00:50:17;;;;;;;;;;;;;;;;;;10394817;28;19922;-62
2021/09/06 00:55:14;;;;;;;;;;;;;;;;;;10391047;28;20201;-63
2021/09/06 01:00:13;;;;;;;;;;;;;;;;;;10416317;28;20407;-64
2021/09/06 01:05:10;;;;;;;;;;;;;;;;;;10409466;28;19987;-63
2021/09/06 01:10:26;;;;;;;;;;;;;;;;;;10413958;28;20350;-63
2021/09/06 01:15:38;;;;;;;;;;;;;;;;;;10404675;28;19938;-63
2021/09/06 01:20:36;;;;;;;;;;;;;;;;;;10407063;28;19912;-64
2021/09/06 01:25:33;;;;;;;;;;;;;;;;;;10402441;28;20308;-65
2021/09/06 01:30:31;;;;;;;;;;;;;;;;;;10401762;28;19923;-63
2021/09/06 01:35:29;;;;;;;;;;;;;;;;;;10401512;28;20007;-64
2021/09/06 01:40:26;;;;;;;;;;;;;;;;;;10400201;28;19919;-65
2021/09/06 01:45:24;;;;;;;;;;;;;;;;;;10420618;28;19922;-64
2021/09/06 01:50:21;;;;;;;;;;;;;;;;;;10408406;28;19968;-64
2021/09/06 01:55:25;;;;;;;;;;;;;;;;;;10400221;28;19962;-65
2021/09/06 02:00:29;;;;;;;;;;;;;;;;;;10413943;28;19915;-63
2021/09/06 02:05:26;;;;;;;;;;;;;;;;;;10420380;28;20381;-63
2021/09/06 02:10:25;;;;;;;;;;;;;;;;;;10399921;28;19920;-64
2021/09/06 02:15:24;;;;;;;;;;;;;;;;;;10409212;28;20452;-63
2021/09/06 02:20:22;;;;;;;;;;;;;;;;;;10385431;28;20409;-64
2021/09/06 02:25:19;;;;;;;;;;;;;;;;;;10413713;28;19934;-63
2021/09/06 02:30:19;;;;;;;;;;;;;;;;;;10406382;28;19916;-65
2021/09/06 02:35:16;;;;;;;;;;;;;;;;;;10383652;28;19912;-64
2021/09/06 02:40:14;;;;;;;;;;;;;;;;;;10398099;28;19923;-64
2021/09/06 02:45:13;;;;;;;;;;;;;;;;;;10406662;28;19924;-63
2021/09/06 02:50:14;;;;;;;;;;;;;;;;;;10382656;28;20029;-65
2021/09/06 02:55:12;;;;;;;;;;;;;;;;;;10410949;28;20010;-63
2021/09/06 03:00:13;;;;;;;;;;;;;;;;;;10410678;28;19923;-63
2021/09/06 03:05:11;;;;;;;;;;;;;;;;;;10410033;28;19923;-63
2021/09/06 03:10:14;;;;;;;;;;;;;;;;;;10409683;28;19927;-62
2021/09/06 03:15:11;;;;;;;;;;;;;;;;;;10379597;28;19916;-64
2021/09/06 03:20:09;;;;;;;;;;;;;;;;;;10404283;28;19912;-63
2021/09/06 03:25:08;;;;;;;;;;;;;;;;;;10409672;28;19998;-63
2021/09/06 03:30:06;;;;;;;;;;;;;;;;;;10406997;28;20015;-62
2021/09/06 03:35:06;;;;;;;;;;;;;;;;;;10407403;28;19911;-63
2021/09/06 03:40:04;;;;;;;;;;;;;;;;;;10408823;28;19908;-63
2021/09/06 03:45:01;;;;;;;;;;;;;;;;;;10409105;28;19966;-63
2021/09/06 03:49:58;;;;;;;;;;;;;;;;;;10389820;28;20395;-62
2021/09/06 03:54:56;;;;;;;;;;;;;;;;;;10425339;28;19981;-68
2021/09/06 03:59:56;;;;;;;;;;;;;;;;;;10368923;28;19905;-65
2021/09/06 04:04:54;;;;;;;;;;;;;;;;;;10407155;28;19904;-64
2021/09/06 04:09:53;;;;;;;;;;;;;;;;;;10385074;28;19927;-65
2021/09/06 04:14:51;;;;;;;;;;;;;;;;;;10387275;28;19931;-66
2021/09/06 04:19:49;;;;;;;;;;;;;;;;;;10391389;28;19908;-64
2021/09/06 04:24:46;;;;;;;;;;;;;;;;;;10410775;28;20292;-61
2021/09/06 04:29:45;;;;;;;;;;;;;;;;;;10379101;28;20009;-63
2021/09/06 04:34:43;;;;;;;;;;;;;;;;;;10388498;28;19920;-65
2021/09/06 04:39:41;;;;;;;;;;;;;;;;;;10368781;28;20159;-63
2021/09/06 04:44:39;;;;;;;;;;;;;;;;;;10372519;28;20069;-65
2021/09/06 04:49:37;;;;;;;;;;;;;;;;;;10392515;28;19916;-63
2021/09/06 04:54:34;;;;;;;;;;;;;;;;;;10381390;28;19916;-64
2021/09/06 04:59:32;;;;;;;;;;;;;;;;;;10378597;28;20376;-66
2021/09/06 05:04:29;;;;;;;;;;;;;;;;;;10382776;28;19923;-65
2021/09/06 05:09:27;;;;;;;;;;;;;;;;;;10406636;28;20288;-64
2021/09/06 05:14:24;;;;;;;;;;;;;;;;;;10396963;28;19920;-67
2021/09/06 05:19:21;;;;;;;;;;;;;;;;;;10389780;28;19935;-64
2021/09/06 05:24:19;;;;;;;;;;;;;;;;;;10405592;28;19985;-63
2021/09/06 05:29:16;;;;;;;;;;;;;;;;;;10408915;28;20675;-65
2021/09/06 05:34:13;;;;;;;;;;;;;;;;;;10394012;28;19912;-65
2021/09/06 05:39:11;;;;;;;;;;;;;;;;;;10397312;28;19912;-65
2021/09/06 05:44:14;;;;;;;;;;;;;;;;;;10382094;28;19912;-66
2021/09/06 05:49:13;;;;;;;;;;;;;;;;;;10367369;28;19924;-64
2021/09/06 05:54:12;;;;;;;;;;;;;;;;;;10394666;28;19964;-64
2021/09/06 05:59:10;;;;;;;;;;;;;;;;;;10407884;28;20261;-63
2021/09/06 06:04:08;;;;;;;;;;;;;;;;;;10414613;28;19912;-64
2021/09/06 06:09:08;;;;;;;;;;;;;;;;;;10406044;28;19916;-65
2021/09/06 06:14:06;;;;;;;;;;;;;;;;;;10368797;28;19920;-65
2021/09/06 06:19:03;;;;;;;;;;;;;;;;;;10399027;28;19920;-64
2021/09/06 06:24:07;;;;;;;;;;;;;;;;;;10395085;28;19922;-64
2021/09/06 06:29:17;;;;;;;;;;;;;;;;;;10410480;28;19916;-65
2021/09/06 06:34:15;;;;;;;;;;;;;;;;;;10350620;28;20727;-66
2021/09/06 06:39:12;;;;;;;;;;;;;;;;;;10384458;28;19999;-65
2021/09/06 06:44:10;;;;;;;;;;;;;;;;;;10388722;28;20392;-65
2021/09/06 06:49:07;;;;;;;;;;;;;;;;;;10390525;28;19932;-63
2021/09/06 06:54:05;;;;;;;;;;;;;;;;;;10373932;28;19916;-63
2021/09/06 06:59:07;;;;;;;;;;;;;;;;;;10394145;28;19919;-65
2021/09/06 07:04:04;;;;;;;;;;;;;;;;;;10394162;28;19912;-65
2021/09/06 07:09:04;;;;;;;;;;;;;;;;;;10370406;28;20015;-62
2021/09/06 07:14:02;;;;;;;;;;;;;;;;;;10388372;28;20452;-64
2021/09/06 07:18:59;;;;;;;;;;;;;;;;;;10407223;28;20296;-65
2021/09/06 07:23:58;;;;;;;;;;;;;;;;;;10384451;28;20006;-64
2021/09/06 07:28:55;;;;;;;;;;;;;;;;;;10401216;28;20018;-63
2021/09/06 07:33:53;;;;;;;;;;;;;;;;;;10376390;28;19917;-63
2021/09/06 07:38:50;;;;;;;;;;;;;;;;;;10374919;28;19969;-68
2021/09/06 07:43:48;;;;;;;;;;;;;;;;;;10398595;28;20057;-66
2021/09/06 07:48:45;;;;;;;;;;;;;;;;;;10380963;28;20025;-65
2021/09/06 07:53:44;;;;;;;;;;;;;;;;;;10375178;28;19989;-66
2021/09/06 07:58:44;;;;;;;;;;;;;;;;;;10390129;28;19912;-66
2021/09/06 08:03:42;;;;;;;;;;;;;;;;;;10399001;28;19912;-66
2021/09/06 08:08:39;;;;;;;;;;;;;;;;;;10404148;28;19969;-65
2021/09/06 08:13:38;;;;;;;;;;;;;;;;;;10373728;28;19919;-66
2021/09/06 08:18:35;;;;;;;;;;;;;;;;;;10390469;28;19935;-65
2021/09/06 08:23:32;;;;;;;;;;;;;;;;;;10386126;28;19939;-64
2021/09/06 08:28:35;;;;;;;;;;;;;;;;;;10364974;28;20336;-66
2021/09/06 08:33:32;;;;;;;;;;;;;;;;;;10377769;28;20479;-63
2021/09/06 08:38:31;;;;;;;;;;;;;;;;;;10377326;28;20281;-66
2021/09/06 08:43:34;;;;;;;;;;;;;;;;;;10393520;28;19916;-65
2021/09/06 08:48:36;;;;;;;;;;;;;;;;;;10414271;28;20404;-66
2021/09/06 08:53:33;;;;;;;;;;;;;;;;;;10412901;28;19916;-66
2021/09/06 08:58:30;;;;;;;;;;;;;;;;;;10386873;28;19912;-65
2021/09/06 09:03:28;;;;;;;;;;;;;;;;;;10393996;28;19913;-64
2021/09/06 09:08:46;;;;;;;;;;;;;;;;;;10382260;28;19916;-66
2021/09/06 09:14:08;;;;;;;;;;;;;;;;;;10386041;28;20013;-65
2021/09/06 09:19:26;;;;;;;;;;;;;;;;;;10405397;28;20385;-66
2021/09/06 09:24:43;;;;;;;;;;;;;;;;;;10406281;28;20396;-65
2021/09/06 09:29:55;;;;;;;;;;;;;;;;;;10421087;28;20373;-66
2021/09/06 09:35:01;;;;;;;;;;;;;;;;;;10372063;28;19934;-65
2021/09/06 09:40:11;;;;;;;;;;;;;;;;;;10404422;28;20388;-67
2021/09/06 09:45:09;;;;;;;;;;;;;;;;;;10396598;28;19907;-64
2021/09/06 09:50:22;;;;;;;;;;;;;;;;;;10419895;28;20356;-65
2021/09/06 09:55:19;;;;;;;;;;;;;;;;;;10375748;28;19916;-66
2021/09/06 10:00:17;;;;;;;;;;;;;;;;;;10401715;28;19917;-65
2021/09/06 10:05:15;;;;;;;;;;;;;;;;;;10386781;28;19991;-67
2021/09/06 10:10:17;;;;;;;;;;;;;;;;;;10401742;28;19931;-65
2021/09/06 10:15:14;;;;;;;;;;;;;;;;;;10397204;28;20389;-66
2021/09/06 10:20:12;;;;;;;;;;;;;;;;;;10386537;28;19955;-65
2021/09/06 10:25:10;;;;;;;;;;;;;;;;;;10381362;28;19912;-64
2021/09/06 10:30:08;;;;;;;;;;;;;;;;;;10408304;28;19912;-66
2021/09/06 10:35:06;;;;;;;;;;;;;;;;;;10402587;28;19909;-65
2021/09/06 10:40:04;;;;;;;;;;;;;;;;;;10398542;28;20265;-66
2021/09/06 10:45:02;;;;;;;;;;;;;;;;;;10407343;28;19912;-67
2021/09/06 10:50:00;;;;;;;;;;;;;;;;;;10412300;28;19912;-68
2021/09/06 10:54:58;;;;;;;;;;;;;;;;;;10415701;28;20431;-65
2021/09/06 10:59:56;;;;;;;;;;;;;;;;;;10402116;28;20090;-65
2021/09/06 11:04:55;;;;;;;;;;;;;;;;;;10411931;28;19905;-69
2021/09/06 11:09:53;;;;;;;;;;;;;;;;;;10400613;28;19934;-68
2021/09/06 11:14:52;;;;;;;;;;;;;;;;;;10413568;28;19954;-65
2021/09/06 11:19:50;;;;;;;;;;;;;;;;;;10386813;28;20453;-66
2021/09/06 11:24:47;;;;;;;;;;;;;;;;;;10389675;28;20341;-66
2021/09/06 11:29:45;;;;;;;;;;;;;;;;;;10410587;28;20011;-67
2021/09/06 11:34:42;;;;;;;;;;;;;;;;;;10395075;28;19912;-65
2021/09/06 11:39:40;;;;;;;;;;;;;;;;;;10390347;28;19912;-66
2021/09/06 11:44:37;;;;;;;;;;;;;;;;;;10392218;28;19926;-66
2021/09/06 11:49:34;;;;;;;;;;;;;;;;;;10404059;28;19916;-67
2021/09/06 11:54:32;;;;;;;;;;;;;;;;;;10402596;28;19940;-66
2021/09/06 11:59:29;;;;;;;;;;;;;;;;;;10392130;28;19912;-65
2021/09/06 12:04:27;;;;;;;;;;;;;;;;;;10405413;28;19976;-67
2021/09/06 12:09:24;;;;;;;;;;;;;;;;;;10413113;28;19939;-68
2021/09/06 12:14:22;;;;;;;;;;;;;;;;;;10394882;28;19933;-65
2021/09/06 12:19:19;;;;;;;;;;;;;;;;;;10395285;28;20018;-65
2021/09/06 12:24:16;;;;;;;;;;;;;;;;;;10401921;28;19927;-64
2021/09/06 12:29:14;;;;;;;;;;;;;;;;;;10403912;28;19923;-68
2021/09/06 12:34:11;;;;;;;;;;;;;;;;;;10403661;28;19927;-64
2021/09/06 12:39:08;;;;;;;;;;;;;;;;;;10397803;28;20010;-66
2021/09/06 12:44:05;;;;;;;;;;;;;;;;;;10409383;28;20006;-67
2021/09/06 12:49:03;;;;;;;;;;;;;;;;;;10383946;28;19926;-65
2021/09/06 12:54:00;;;;;;;;;;;;;;;;;;10393530;28;20076;-66
2021/09/06 12:58:58;;;;;;;;;;;;;;;;;;10409070;28;19919;-66
2021/09/06 13:03:55;;;;;;;;;;;;;;;;;;10386429;28;19912;-65
2021/09/06 13:08:52;;;;;;;;;;;;;;;;;;10401679;28;20295;-66
2021/09/06 13:13:50;;;;;;;;;;;;;;;;;;10376719;28;19915;-65
2021/09/06 13:18:47;;;;;;;;;;;;;;;;;;10404325;28;19923;-65
2021/09/06 13:23:44;;;;;;;;;;;;;;;;;;10391382;28;19974;-66
2021/09/06 13:28:41;;;;;;;;;;;;;;;;;;10407994;28;19916;-66
2021/09/06 13:33:40;;;;;;;;;;;;;;;;;;10415062;28;20027;-67
2021/09/06 13:38:37;;;;;;;;;;;;;;;;;;10406130;28;19912;-66
2021/09/06 13:43:34;;;;;;;;;;;;;;;;;;10358747;28;19916;-66
2021/09/06 13:48:32;;;;;;;;;;;;;;;;;;10398248;28;19922;-67
2021/09/06 13:53:29;;;;;;;;;;;;;;;;;;10395134;28;19920;-66
2021/09/06 13:58:26;;;;;;;;;;;;;;;;;;10416649;28;20385;-64
2021/09/06 14:03:23;;;;;;;;;;;;;;;;;;10415114;28;19969;-66
2021/09/06 14:08:21;;;;;;;;;;;;;;;;;;10368166;28;19922;-66
2021/09/06 14:13:18;;;;;;;;;;;;;;;;;;10416272;28;19922;-68
2021/09/06 14:18:15;;;;;;;;;;;;;;;;;;10412544;28;19924;-66
2021/09/06 14:23:13;;;;;;;;;;;;;;;;;;10409589;28;19919;-67
2021/09/06 14:28:10;;;;;;;;;;;;;;;;;;10403431;28;19927;-65
2021/09/06 14:33:07;;;;;;;;;;;;;;;;;;10406424;28;19969;-65
2021/09/06 14:38:05;;;;;;;;;;;;;;;;;;10393673;28;19916;-64
2021/09/06 14:43:02;;;;;;;;;;;;;;;;;;10412156;28;19916;-66
2021/09/06 14:47:59;;;;;;;;;;;;;;;;;;10401782;28;19916;-64
2021/09/06 14:52:57;;;;;;;;;;;;;;;;;;10401662;28;19912;-67
2021/09/06 14:57:54;;;;;;;;;;;;;;;;;;10406073;28;19912;-66
2021/09/06 15:02:51;;;;;;;;;;;;;;;;;;10414017;28;20353;-66
2021/09/06 15:07:48;;;;;;;;;;;;;;;;;;10405103;28;20006;-65
2021/09/06 15:12:46;;;;;;;;;;;;;;;;;;10382244;28;19916;-68
2021/09/06 15:17:44;;;;;;;;;;;;;;;;;;10393839;28;20011;-67
2021/09/06 15:22:41;;;;;;;;;;;;;;;;;;10405521;28;20324;-67
2021/09/06 15:27:39;;;;;;;;;;;;;;;;;;10365385;22;19924;-64
2021/09/06 15:32:36;;;;;;;;;;;;;;;;;;10340666;28;20249;-61
2021/09/06 15:37:34;;;;;;;;;;;;;;;;;;10340707;28;19963;-62
2021/09/06 15:42:31;;;;;;;;;;;;;;;;;;10322891;28;19920;-63
2021/09/06 15:47:29;;;;;;;;;;;;;;;;;;10323265;28;20007;-64
2021/09/06 15:52:26;;;;;;;;;;;;;;;;;;10322929;28;20150;-64
2021/09/06 15:57:26;;;;;;;;;;;;;;;;;;10340520;28;19947;-62
2021/09/06 16:02:23;;;;;;;;;;;;;;;;;;10339900;28;20056;-64
2021/09/06 16:07:20;;;;;;;;;;;;;;;;;;10340237;28;19952;-61
2021/09/06 16:12:18;;;;;;;;;;;;;;;;;;10305460;28;20005;-64
2021/09/06 16:17:15;;;;;;;;;;;;;;;;;;10303016;28;20008;-63
2021/09/06 16:22:13;;;;;;;;;;;;;;;;;;10320523;28;20279;-63
2021/09/06 16:27:10;;;;;;;;;;;;;;;;;;10322766;28;20003;-63
2021/09/06 16:32:08;;;;;;;;;;;;;;;;;;10313098;28;19916;-64
2021/09/06 16:37:10;;;;;;;;;;;;;;;;;;10323580;28;20162;-62
2021/09/06 16:42:11;;;;;;;;;;;;;;;;;;10306395;28;20402;-64
2021/09/06 16:47:08;;;;;;;;;;;;;;;;;;10315984;28;20404;-64
2021/09/06 16:52:05;;;;;;;;;;;;;;;;;;10308333;28;19928;-62
2021/09/06 16:57:03;;;;;;;;;;;;;;;;;;10309112;28;20401;-62
2021/09/06 17:02:00;;;;;;;;;;;;;;;;;;10315265;28;20571;-64
2021/09/06 17:06:57;;;;;;;;;;;;;;;;;;10323851;28;19912;-63
2021/09/06 17:11:56;;;;;;;;;;;;;;;;;;10316930;28;19928;-64
2021/09/06 17:16:53;;;;;;;;;;;;;;;;;;10310708;28;19939;-63
2021/09/06 17:21:53;;;;;;;;;;;;;;;;;;10313569;28;20053;-64
2021/09/06 17:26:50;;;;;;;;;;;;;;;;;;10327752;28;20380;-62
2021/09/06 17:31:47;;;;;;;;;;;;;;;;;;10317979;28;20319;-63
2021/09/06 17:36:45;;;;;;;;;;;;;;;;;;10322106;28;19936;-62
2021/09/06 17:41:42;;;;;;;;;;;;;;;;;;10314106;28;20395;-64
2021/09/06 17:46:39;;;;;;;;;;;;;;;;;;10316715;28;20410;-64
2021/09/06 17:51:37;;;;;;;;;;;;;;;;;;10310442;28;19917;-64
2021/09/06 17:56:34;;;;;;;;;;;;;;;;;;10301441;28;19917;-62
2021/09/06 18:01:31;;;;;;;;;;;;;;;;;;10327034;28;19935;-62
2021/09/06 18:06:29;;;;;;;;;;;;;;;;;;10327265;28;20365;-63
2021/09/06 18:11:27;;;;;;;;;;;;;;;;;;10313284;28;20407;-63
2021/09/06 18:16:24;;;;;;;;;;;;;;;;;;10317146;28;19913;-63
2021/09/06 18:21:22;;;;;;;;;;;;;;;;;;10316872;28;19989;-64
2021/09/06 18:26:19;;;;;;;;;;;;;;;;;;10303124;28;19920;-62
2021/09/06 18:31:17;;;;;;;;;;;;;;;;;;10315411;28;19917;-62
2021/09/06 18:36:14;;;;;;;;;;;;;;;;;;10324173;28;19913;-64
2021/09/06 18:41:12;;;;;;;;;;;;;;;;;;10310151;28;19917;-63
2021/09/06 18:46:09;;;;;;;;;;;;;;;;;;10317446;28;19948;-63
2021/09/06 18:51:07;;;;;;;;;;;;;;;;;;10323621;28;20012;-62
2021/09/06 18:56:04;;;;;;;;;;;;;;;;;;10303264;28;19967;-62
2021/09/06 19:01:01;;;;;;;;;;;;;;;;;;10309698;28;19921;-63
2021/09/06 19:05:59;;;;;;;;;;;;;;;;;;10307259;28;20294;-63
2021/09/06 19:10:57;;;;;;;;;;;;;;;;;;10300175;28;19925;-62
2021/09/06 19:15:54;;;;;;;;;;;;;;;;;;10313207;28;19947;-62
2021/09/06 19:20:53;;;;;;;;;;;;;;;;;;10317477;28;19986;-63
2021/09/06 19:25:51;;;;;;;;;;;;;;;;;;10312435;28;19979;-64
2021/09/06 19:30:49;;;;;;;;;;;;;;;;;;10315679;28;20446;-62
2021/09/06 19:35:47;;;;;;;;;;;;;;;;;;10307513;28;20549;-62
2021/09/06 19:40:46;;;;;;;;;;;;;;;;;;10318736;28;20297;-62
2021/09/06 19:45:45;;;;;;;;;;;;;;;;;;10307568;28;19956;-62
2021/09/06 19:50:44;;;;;;;;;;;;;;;;;;10308545;28;20359;-62
2021/09/06 19:55:41;;;;;;;;;;;;;;;;;;10309741;28;20537;-63
2021/09/06 20:00:39;;;;;;;;;;;;;;;;;;10313150;28;19962;-63
2021/09/06 20:05:36;;;;;;;;;;;;;;;;;;10312757;28;20741;-63
2021/09/06 20:10:34;;;;;;;;;;;;;;;;;;10318007;28;19917;-62
2021/09/06 20:15:31;;;;;;;;;;;;;;;;;;10316459;28;19913;-62
2021/09/06 20:20:28;;;;;;;;;;;;;;;;;;10309842;28;19921;-64
2021/09/06 20:25:26;;;;;;;;;;;;;;;;;;10291432;28;19931;-62
2021/09/06 20:30:24;;;;;;;;;;;;;;;;;;10312589;28;19999;-62
2021/09/06 20:35:21;;;;;;;;;;;;;;;;;;10325855;28;19909;-62
2021/09/06 20:40:19;;;;;;;;;;;;;;;;;;10319696;28;20547;-64
2021/09/06 20:45:17;;;;;;;;;;;;;;;;;;10317662;28;19932;-62
2021/09/06 20:50:14;;;;;;;;;;;;;;;;;;10330425;28;19913;-62
2021/09/06 20:55:14;;;;;;;;;;;;;;;;;;10332537;28;20294;-62
2021/09/06 21:00:11;;;;;;;;;;;;;;;;;;10318562;28;19991;-65
2021/09/06 21:05:08;;;;;;;;;;;;;;;;;;10305573;28;19915;-64
2021/09/06 21:10:06;;;;;;;;;;;;;;;;;;10328481;28;20349;-63
2021/09/06 21:15:03;;;;;;;;;;;;;;;;;;10318593;28;19924;-64
2021/09/06 21:20:00;;;;;;;;;;;;;;;;;;10308388;28;19917;-63
2021/09/06 21:24:57;;;;;;;;;;;;;;;;;;10327576;28;19916;-63
2021/09/06 21:29:55;;;;;;;;;;;;;;;;;;10325857;28;19925;-62
2021/09/06 21:34:52;;;;;;;;;;;;;;;;;;10335209;28;20396;-62
2021/09/06 21:39:49;;;;;;;;;;;;;;;;;;10327756;28;19917;-61
2021/09/06 21:44:47;;;;;;;;;;;;;;;;;;10322563;28;19916;-63
2021/09/06 21:49:44;;;;;;;;;;;;;;;;;;10323617;28;20355;-60
2021/09/06 21:54:41;;;;;;;;;;;;;;;;;;10318132;28;19928;-63
2021/09/06 21:59:38;;;;;;;;;;;;;;;;;;10320184;28;20306;-62
2021/09/06 22:04:36;;;;;;;;;;;;;;;;;;10313783;28;19917;-64
2021/09/06 22:09:33;;;;;;;;;;;;;;;;;;10319773;28;19963;-62
2021/09/06 22:14:30;;;;;;;;;;;;;;;;;;10314186;28;20019;-63
2021/09/06 22:19:28;;;;;;;;;;;;;;;;;;10319684;28;20416;-63
2021/09/06 22:24:25;;;;;;;;;;;;;;;;;;10324766;28;20014;-63
2021/09/06 22:29:22;;;;;;;;;;;;;;;;;;10309275;28;20369;-63
2021/09/06 22:34:20;;;;;;;;;;;;;;;;;;10316360;28;19913;-63
2021/09/06 22:39:18;;;;;;;;;;;;;;;;;;10318508;28;19913;-62
2021/09/06 22:44:16;;;;;;;;;;;;;;;;;;10314910;28;19920;-64
2021/09/06 22:49:13;;;;;;;;;;;;;;;;;;10294834;28;19920;-63
2021/09/06 22:54:10;;;;;;;;;;;;;;;;;;10298073;28;19913;-63
2021/09/06 22:59:07;;;;;;;;;;;;;;;;;;10308532;28;19913;-62
2021/09/06 23:04:05;;;;;;;;;;;;;;;;;;10316500;28;20006;-64
2021/09/06 23:09:03;;;;;;;;;;;;;;;;;;10296095;28;20352;-63
2021/09/06 23:14:01;;;;;;;;;;;;;;;;;;10318016;28;19920;-62
2021/09/06 23:18:59;;;;;;;;;;;;;;;;;;10309496;28;20060;-62
2021/09/06 23:23:56;;;;;;;;;;;;;;;;;;10315786;28;19960;-63
2021/09/06 23:28:56;;;;;;;;;;;;;;;;;;10324770;28;20016;-63
2021/09/06 23:33:53;;;;;;;;;;;;;;;;;;10308777;28;19917;-62
2021/09/06 23:38:51;;;;;;;;;;;;;;;;;;10315399;28;20186;-64
2021/09/06 23:43:48;;;;;;;;;;;;;;;;;;10315094;28;19920;-63
2021/09/06 23:48:46;;;;;;;;;;;;;;;;;;10297239;28;19924;-63
2021/09/06 23:53:43;;;;;;;;;;;;;;;;;;10319395;28;19928;-64
2021/09/06 23:58:40;;;;;;;;;;;;;;;;;;10318479;28;20105;-61
